Fayetteville Regional Grannis Field Fayetteville US
ICAO: KFAY
IATA: FAY
Category: Medium
Scheduled Services: Yes

Elevation: 189 ft
TransAlt. 18000 ft.

Airport Communications:
APP/DEP:125.175
ATIS:121.25
GND:121.7
RALEIGH RDO:25.54
TWR:118.3
UNICOM:122.95

KFAY Zoom In..

Runways:

(A) RW 04 length 7709 ft width 150 ft
ILS 110.50 / hdg 38

(B) RW 10 length 4801 ft width 150 ft
---- / hdg 98

(C) RW 22 length 7709 ft width 150 ft
---- / hdg 218

(D) RW 28 length 4801 ft width 150 ft
---- / hdg 278

Location; KFAY
Day. 26 / Time. 13.53 Zulu
* Altimeter: 30.01
* Temperature: 25° c. 77°f.
* Wind from: 210° Speed 12 kn.
Dewpoint: 21° c.
Visibility: 10 Statute Miles.
Clouds: Broken 1700 ft.
Clouds: Broken 2300 ft.

KFAY 261353Z 21012KT 10SM BKN017 BKN023 25/21 A3001 RMK AO2 SLP155 T02500206


Wind From 210°
Speed 12 kn.

 
 
jpsmedia.com for Web Design SOUNDCLOUD worldairports.se 2018   terms of use